TOM9508 EGFF-EGCC
Flight info
| Callsign | TOM9508 |
|---|---|
| Flight time | 0h 35m |
| Altitude | 18000 |
| Route | BCN P69 EXBUM/N0341F200 P69 DIZIM N864 MONTY/N0336F190 |
| Aircraft | B738/M-SDFGHIJ1RWXYZ/LB1 |
Departure
| Time | 2026-05-04 17:43 |
|---|---|
| Airport | Cardiff International Airport (EGFF) |
Arrival
| Time | 2026-05-04 18:18 |
|---|---|
| Airport | Manchester Airport (EGCC) |
| Time | Latitude | Longitude | Altitude | Speed | Heading |
|---|---|---|---|---|---|
| 2026-05-04 16:44 | 51.39765 | -3.33847 | 220 ft | 0 kts | 81° |
| 2026-05-04 17:36 | 51.39764 | -3.33851 | 220 ft | 3 kts | 81° |
| 2026-05-04 17:37 | 51.39761 | -3.33893 | 220 ft | 4 kts | 81° |
| 2026-05-04 17:37 | 51.39757 | -3.33930 | 220 ft | 4 kts | 76° |
| 2026-05-04 17:37 | 51.39746 | -3.33959 | 222 ft | 4 kts | 12° |
| 2026-05-04 17:37 | 51.39727 | -3.33950 | 222 ft | 4 kts | 307° |
| 2026-05-04 17:38 | 51.39717 | -3.33922 | 221 ft | 0 kts | 297° |
| 2026-05-04 17:40 | 51.39725 | -3.33947 | 222 ft | 5 kts | 297° |
| 2026-05-04 17:41 | 51.39753 | -3.34037 | 220 ft | 14 kts | 297° |
| 2026-05-04 17:41 | 51.39809 | -3.34215 | 223 ft | 22 kts | 296° |
| 2026-05-04 17:41 | 51.39890 | -3.34469 | 221 ft | 29 kts | 296° |
| 2026-05-04 17:41 | 51.39982 | -3.34763 | 218 ft | 30 kts | 296° |
| 2026-05-04 17:42 | 51.40077 | -3.35070 | 217 ft | 31 kts | 296° |
| 2026-05-04 17:42 | 51.40133 | -3.35246 | 219 ft | 14 kts | 297° |
| 2026-05-04 17:42 | 51.40151 | -3.35406 | 220 ft | 15 kts | 254° |
| 2026-05-04 17:42 | 51.40081 | -3.35515 | 215 ft | 12 kts | 204° |
| 2026-05-04 17:43 | 51.40028 | -3.35491 | 216 ft | 10 kts | 122° |
| 2026-05-04 17:43 | 51.39967 | -3.35300 | 213 ft | 46 kts | 116° |
| 2026-05-04 17:43 | 51.39682 | -3.34399 | 223 ft | 130 kts | 117° |
| 2026-05-04 17:43 | 51.39226 | -3.32989 | 865 ft | 145 kts | 116° |
| 2026-05-04 17:44 | 51.38759 | -3.31479 | 1688 ft | 162 kts | 114° |
| 2026-05-04 17:44 | 51.38219 | -3.29696 | 2167 ft | 196 kts | 114° |
| 2026-05-04 17:44 | 51.37580 | -3.27564 | 2463 ft | 228 kts | 114° |
| 2026-05-04 17:44 | 51.36847 | -3.25130 | 2853 ft | 254 kts | 114° |
| 2026-05-04 17:45 | 51.36062 | -3.22540 | 3756 ft | 260 kts | 115° |
| 2026-05-04 17:45 | 51.35451 | -3.19809 | 4734 ft | 264 kts | 98° |
| 2026-05-04 17:45 | 51.35563 | -3.16863 | 5532 ft | 269 kts | 75° |
| 2026-05-04 17:45 | 51.36423 | -3.14246 | 6170 ft | 271 kts | 49° |
| 2026-05-04 17:46 | 51.37913 | -3.12366 | 7066 ft | 277 kts | 26° |
| 2026-05-04 17:46 | 51.39752 | -3.11570 | 8004 ft | 282 kts | 2° |
| 2026-05-04 17:46 | 51.41710 | -3.11998 | 8973 ft | 288 kts | 344° |
| 2026-05-04 17:46 | 51.43649 | -3.12902 | 9986 ft | 293 kts | 342° |
| 2026-05-04 17:47 | 51.45641 | -3.13884 | 10701 ft | 310 kts | 342° |
| 2026-05-04 17:47 | 51.47777 | -3.14906 | 11323 ft | 327 kts | 343° |
| 2026-05-04 17:47 | 51.49992 | -3.15937 | 12250 ft | 333 kts | 343° |
| 2026-05-04 17:47 | 51.52235 | -3.16967 | 13296 ft | 338 kts | 343° |
| 2026-05-04 17:48 | 51.54516 | -3.18011 | 14294 ft | 343 kts | 343° |
| 2026-05-04 17:48 | 51.56837 | -3.19074 | 15258 ft | 349 kts | 343° |
| 2026-05-04 17:48 | 51.59158 | -3.20137 | 16226 ft | 354 kts | 343° |
| 2026-05-04 17:48 | 51.61552 | -3.21236 | 17211 ft | 359 kts | 343° |
| 2026-05-04 17:49 | 51.63956 | -3.22340 | 18325 ft | 359 kts | 344° |
| 2026-05-04 17:49 | 51.66402 | -3.23459 | 18875 ft | 374 kts | 343° |
| 2026-05-04 17:49 | 51.68973 | -3.24637 | 19139 ft | 395 kts | 343° |
| 2026-05-04 17:49 | 51.71681 | -3.25841 | 19344 ft | 409 kts | 347° |
| 2026-05-04 17:50 | 51.74534 | -3.26102 | 19510 ft | 412 kts | 7° |
| 2026-05-04 17:50 | 51.77351 | -3.25249 | 19739 ft | 414 kts | 11° |
| 2026-05-04 17:50 | 51.80199 | -3.24427 | 19931 ft | 413 kts | 9° |
| 2026-05-04 17:50 | 51.83050 | -3.23704 | 20021 ft | 417 kts | 9° |
| 2026-05-04 17:51 | 51.85922 | -3.22995 | 20010 ft | 416 kts | 9° |
| 2026-05-04 17:51 | 51.88780 | -3.22282 | 20020 ft | 415 kts | 9° |
| 2026-05-04 17:51 | 51.91595 | -3.21586 | 20026 ft | 415 kts | 8° |
| 2026-05-04 17:51 | 51.94456 | -3.20895 | 20022 ft | 415 kts | 8° |
| 2026-05-04 17:52 | 51.97316 | -3.20200 | 20018 ft | 415 kts | 9° |
| 2026-05-04 17:52 | 52.00169 | -3.19482 | 20023 ft | 415 kts | 9° |
| 2026-05-04 17:52 | 52.03029 | -3.18753 | 20025 ft | 414 kts | 9° |
| 2026-05-04 17:52 | 52.05890 | -3.18197 | 20025 ft | 414 kts | 4° |
| 2026-05-04 17:53 | 52.08762 | -3.18000 | 20033 ft | 413 kts | 1° |
| 2026-05-04 17:53 | 52.11638 | -3.17869 | 20032 ft | 413 kts | 1° |
| 2026-05-04 17:53 | 52.14511 | -3.17708 | 20033 ft | 413 kts | 2° |
| 2026-05-04 17:53 | 52.17378 | -3.17511 | 20032 ft | 412 kts | 2° |
| 2026-05-04 17:54 | 52.20211 | -3.17294 | 20028 ft | 412 kts | 2° |
| 2026-05-04 17:54 | 52.23073 | -3.17068 | 20032 ft | 411 kts | 2° |
| 2026-05-04 17:54 | 52.25931 | -3.16841 | 20039 ft | 411 kts | 2° |
| 2026-05-04 17:54 | 52.28785 | -3.16616 | 20035 ft | 410 kts | 2° |
| 2026-05-04 17:55 | 52.31635 | -3.16394 | 20032 ft | 410 kts | 2° |
| 2026-05-04 17:55 | 52.34483 | -3.16172 | 20034 ft | 409 kts | 2° |
| 2026-05-04 17:55 | 52.37326 | -3.15951 | 20041 ft | 409 kts | 2° |
| 2026-05-04 17:55 | 52.40169 | -3.15731 | 20041 ft | 408 kts | 2° |
| 2026-05-04 17:56 | 52.43004 | -3.15511 | 20032 ft | 408 kts | 2° |
| 2026-05-04 17:56 | 52.45835 | -3.15292 | 20039 ft | 407 kts | 2° |
| 2026-05-04 17:56 | 52.48665 | -3.15072 | 20039 ft | 407 kts | 2° |
| 2026-05-04 17:56 | 52.51490 | -3.14852 | 20034 ft | 406 kts | 2° |
| 2026-05-04 17:57 | 52.54313 | -3.14632 | 20038 ft | 406 kts | 2° |
| 2026-05-04 17:57 | 52.57133 | -3.14412 | 20039 ft | 405 kts | 2° |
| 2026-05-04 17:57 | 52.59950 | -3.14192 | 20044 ft | 405 kts | 3° |
| 2026-05-04 17:57 | 52.62769 | -3.13971 | 20042 ft | 405 kts | 2° |
| 2026-05-04 17:58 | 52.65592 | -3.13759 | 20041 ft | 405 kts | 2° |
| 2026-05-04 17:58 | 52.68406 | -3.13551 | 20048 ft | 405 kts | 2° |
| 2026-05-04 17:58 | 52.71223 | -3.13356 | 20042 ft | 405 kts | 1° |
| 2026-05-04 17:58 | 52.74038 | -3.13597 | 20039 ft | 405 kts | 352° |
| 2026-05-04 17:59 | 52.76814 | -3.14369 | 20041 ft | 405 kts | 350° |
| 2026-05-04 17:59 | 52.79605 | -3.15105 | 19896 ft | 405 kts | 351° |
| 2026-05-04 17:59 | 52.85170 | -3.16259 | 19585 ft | 403 kts | 0° |
| 2026-05-04 18:00 | 52.87918 | -3.15529 | 19426 ft | 400 kts | 19° |
| 2026-05-04 18:00 | 52.90333 | -3.13425 | 19283 ft | 396 kts | 38° |
| 2026-05-04 18:00 | 52.92192 | -3.10224 | 19126 ft | 378 kts | 54° |
| 2026-05-04 18:00 | 52.93607 | -3.06685 | 18932 ft | 360 kts | 58° |
| 2026-05-04 18:01 | 52.94893 | -3.03225 | 18688 ft | 346 kts | 59° |
| 2026-05-04 18:01 | 52.96126 | -2.99855 | 18461 ft | 334 kts | 59° |
| 2026-05-04 18:01 | 52.97315 | -2.96589 | 18089 ft | 329 kts | 59° |
| 2026-05-04 18:02 | 52.99718 | -2.89930 | 16479 ft | 341 kts | 59° |
| 2026-05-04 18:02 | 53.00937 | -2.86521 | 15722 ft | 344 kts | 59° |
| 2026-05-04 18:02 | 53.02145 | -2.83123 | 14992 ft | 347 kts | 59° |
| 2026-05-04 18:02 | 53.03368 | -2.79660 | 14268 ft | 348 kts | 59° |
| 2026-05-04 18:03 | 53.04592 | -2.76174 | 13525 ft | 349 kts | 59° |
| 2026-05-04 18:03 | 53.05810 | -2.72681 | 12738 ft | 349 kts | 59° |
| 2026-05-04 18:03 | 53.07024 | -2.69179 | 11968 ft | 349 kts | 59° |
| 2026-05-04 18:03 | 53.08231 | -2.65683 | 11216 ft | 348 kts | 59° |
| 2026-05-04 18:04 | 53.09428 | -2.62197 | 10691 ft | 341 kts | 60° |
| 2026-05-04 18:04 | 53.10571 | -2.58848 | 10447 ft | 326 kts | 60° |
| 2026-05-04 18:04 | 53.12713 | -2.52528 | 9954 ft | 302 kts | 60° |
| 2026-05-04 18:05 | 53.13717 | -2.49545 | 9698 ft | 292 kts | 60° |
| 2026-05-04 18:05 | 53.14703 | -2.46605 | 9251 ft | 289 kts | 60° |
| 2026-05-04 18:05 | 53.15665 | -2.43728 | 8823 ft | 286 kts | 60° |
| 2026-05-04 18:05 | 53.16631 | -2.40831 | 8386 ft | 284 kts | 60° |
| 2026-05-04 18:06 | 53.18486 | -2.35225 | 8014 ft | 269 kts | 60° |
| 2026-05-04 18:06 | 53.19380 | -2.32512 | 7664 ft | 266 kts | 59° |
| 2026-05-04 18:06 | 53.20269 | -2.29800 | 7235 ft | 266 kts | 60° |
| 2026-05-04 18:07 | 53.21154 | -2.27097 | 6859 ft | 265 kts | 60° |
| 2026-05-04 18:07 | 53.22033 | -2.24406 | 6516 ft | 262 kts | 60° |
| 2026-05-04 18:07 | 53.22894 | -2.21765 | 6284 ft | 257 kts | 60° |
| 2026-05-04 18:07 | 53.23735 | -2.19180 | 6113 ft | 256 kts | 60° |
| 2026-05-04 18:08 | 53.24585 | -2.16572 | 6056 ft | 254 kts | 60° |
| 2026-05-04 18:08 | 53.25433 | -2.13965 | 6055 ft | 257 kts | 60° |
| 2026-05-04 18:08 | 53.26293 | -2.11326 | 6063 ft | 260 kts | 60° |
| 2026-05-04 18:08 | 53.27161 | -2.08664 | 6060 ft | 261 kts | 60° |
| 2026-05-04 18:09 | 53.28894 | -2.03353 | 6046 ft | 260 kts | 60° |
| 2026-05-04 18:09 | 53.30622 | -1.98061 | 6042 ft | 259 kts | 60° |
| 2026-05-04 18:10 | 53.31481 | -1.95425 | 6044 ft | 256 kts | 60° |
| 2026-05-04 18:10 | 53.32320 | -1.92849 | 5875 ft | 247 kts | 60° |
| 2026-05-04 18:10 | 53.33126 | -1.90371 | 5715 ft | 239 kts | 60° |
| 2026-05-04 18:10 | 53.33953 | -1.87993 | 5539 ft | 235 kts | 51° |
| 2026-05-04 18:11 | 53.35200 | -1.86419 | 5369 ft | 224 kts | 19° |
| 2026-05-04 18:11 | 53.36689 | -1.86195 | 5276 ft | 210 kts | 353° |
| 2026-05-04 18:11 | 53.38097 | -1.86531 | 5166 ft | 199 kts | 351° |
| 2026-05-04 18:11 | 53.39427 | -1.86885 | 5078 ft | 188 kts | 350° |
| 2026-05-04 18:12 | 53.40689 | -1.87407 | 4990 ft | 189 kts | 333° |
| 2026-05-04 18:12 | 53.41727 | -1.88769 | 4798 ft | 190 kts | 319° |
| 2026-05-04 18:12 | 53.42727 | -1.90195 | 4598 ft | 188 kts | 320° |
| 2026-05-04 18:12 | 53.43728 | -1.91601 | 4388 ft | 187 kts | 320° |
| 2026-05-04 18:13 | 53.44709 | -1.93001 | 4159 ft | 183 kts | 315° |
| 2026-05-04 18:13 | 53.45265 | -1.94874 | 3929 ft | 182 kts | 279° |
| 2026-05-04 18:13 | 53.45437 | -1.99128 | 3554 ft | 185 kts | 275° |
| 2026-05-04 18:14 | 53.45523 | -2.01241 | 3355 ft | 183 kts | 275° |
| 2026-05-04 18:14 | 53.45610 | -2.03355 | 3149 ft | 181 kts | 275° |
| 2026-05-04 18:14 | 53.45538 | -2.05443 | 2917 ft | 181 kts | 251° |
| 2026-05-04 18:15 | 53.44262 | -2.08863 | 2709 ft | 165 kts | 239° |
| 2026-05-04 18:15 | 53.42895 | -2.11922 | 2444 ft | 166 kts | 234° |
| 2026-05-04 18:15 | 53.42170 | -2.13431 | 2224 ft | 166 kts | 233° |
| 2026-05-04 18:16 | 53.41442 | -2.14933 | 1986 ft | 164 kts | 234° |
| 2026-05-04 18:16 | 53.40727 | -2.16413 | 1767 ft | 163 kts | 234° |
| 2026-05-04 18:16 | 53.40022 | -2.17872 | 1517 ft | 157 kts | 233° |
| 2026-05-04 18:17 | 53.38773 | -2.20454 | 1129 ft | 129 kts | 234° |
| 2026-05-04 18:17 | 53.38217 | -2.21609 | 966 ft | 126 kts | 233° |
| 2026-05-04 18:17 | 53.37118 | -2.23884 | 627 ft | 123 kts | 232° |
| 2026-05-04 18:18 | 53.36572 | -2.25010 | 431 ft | 124 kts | 231° |
| 2026-05-04 18:18 | 53.36037 | -2.26126 | 260 ft | 119 kts | 231° |
| 2026-05-04 18:18 | 53.35619 | -2.26992 | 240 ft | 65 kts | 231° |
| 2026-05-04 18:18 | 53.35443 | -2.27356 | 239 ft | 31 kts | 231° |
| 2026-05-04 18:19 | 53.35261 | -2.27853 | 230 ft | 12 kts | 257° |
| 2026-05-04 18:19 | 53.35246 | -2.27991 | 231 ft | 12 kts | 260° |
| 2026-05-04 18:19 | 53.35232 | -2.28126 | 231 ft | 12 kts | 261° |
| 2026-05-04 18:20 | 53.35259 | -2.28222 | 232 ft | 10 kts | 356° |
| 2026-05-04 18:20 | 53.35316 | -2.28148 | 232 ft | 9 kts | 44° |
| 2026-05-04 18:20 | 53.35355 | -2.28085 | 232 ft | 6 kts | 44° |
| 2026-05-04 18:20 | 53.35378 | -2.28047 | 232 ft | 3 kts | 44° |
| 2026-05-04 18:21 | 53.35395 | -2.28020 | 232 ft | 4 kts | 44° |
| 2026-05-04 18:21 | 53.35399 | -2.28013 | 232 ft | 1 kts | 44° |
| 2026-05-04 18:21 | 53.35409 | -2.27997 | 232 ft | 3 kts | 44° |
| 2026-05-04 18:21 | 53.35428 | -2.27967 | 232 ft | 5 kts | 44° |
| 2026-05-04 18:22 | 53.35455 | -2.27923 | 232 ft | 6 kts | 44° |
| 2026-05-04 18:22 | 53.35491 | -2.27865 | 232 ft | 9 kts | 44° |
| 2026-05-04 18:22 | 53.35556 | -2.27759 | 232 ft | 16 kts | 44° |
| 2026-05-04 18:22 | 53.35632 | -2.27636 | 232 ft | 13 kts | 45° |
| 2026-05-04 18:23 | 53.35714 | -2.27630 | 232 ft | 13 kts | 338° |
| 2026-05-04 18:23 | 53.35801 | -2.27661 | 232 ft | 13 kts | 5° |
| 2026-05-04 18:23 | 53.35887 | -2.27645 | 232 ft | 12 kts | 6° |
| 2026-05-04 18:23 | 53.35935 | -2.27635 | 232 ft | 4 kts | 20° |
| 2026-05-04 18:24 | 53.35936 | -2.27584 | 232 ft | 5 kts | 97° |
| 2026-05-04 18:24 | 53.35933 | -2.27536 | 232 ft | 2 kts | 96° |
| 2026-05-04 18:24 | 53.35932 | -2.27531 | 232 ft | 0 kts | 96° |